createdAt,value
2023-03-26T00:01:42.180Z,83.33
2023-03-26T00:04:10.572Z,84.13
2023-03-26T00:06:40.447Z,81.33
2023-03-26T00:09:11.214Z,80.02
2023-03-26T00:11:39.638Z,81.65
2023-03-26T00:14:07.972Z,79.97
2023-03-26T00:16:36.728Z,80.54
2023-03-26T00:19:05.599Z,81.26
2023-03-26T00:21:34.148Z,82.78
2023-03-26T00:24:09.359Z,83.00
2023-03-26T00:26:39.491Z,83.68
2023-03-26T00:29:09.292Z,84.06
2023-03-26T00:31:42.007Z,84.08
2023-03-26T00:34:11.470Z,83.16
2023-03-26T00:36:39.813Z,81.16
2023-03-26T00:39:08.149Z,80.76
2023-03-26T00:41:37.850Z,79.10
2023-03-26T00:44:06.432Z,79.08
2023-03-26T00:46:34.970Z,78.64
2023-03-26T00:49:04.899Z,77.91
2023-03-26T00:51:34.803Z,76.00
2023-03-26T00:54:03.356Z,77.09
2023-03-26T00:56:32.681Z,76.47
2023-03-26T00:59:01.412Z,75.97
2023-03-26T01:01:31.430Z,74.87
2023-03-26T01:04:20.812Z,76.00
2023-03-26T01:06:49.593Z,75.61
2023-03-26T01:09:20.593Z,75.33
2023-03-26T01:11:51.262Z,75.23
2023-03-26T01:14:24.565Z,75.28
2023-03-26T01:17:02.505Z,74.87
2023-03-26T01:19:45.996Z,73.80
2023-03-26T01:22:23.364Z,73.02
2023-03-26T01:24:57.376Z,73.78
2023-03-26T01:27:44.282Z,73.10
2023-03-26T01:30:12.734Z,72.91
2023-03-26T01:33:00.137Z,73.87
2023-03-26T01:35:34.487Z,74.71
2023-03-26T01:38:39.885Z,73.02
2023-03-26T01:41:11.763Z,73.51
2023-03-26T01:44:05.090Z,72.15
2023-03-26T01:46:38.295Z,71.43
2023-03-26T01:49:13.920Z,70.08
2023-03-26T01:51:44.122Z,69.24
2023-03-26T01:54:17.913Z,69.68
2023-03-26T01:56:59.180Z,68.64
2023-03-26T01:59:51.808Z,68.18
2023-03-26T02:02:39.679Z,67.90
2023-03-26T02:05:20.109Z,66.71
2023-03-26T02:07:53.364Z,66.45
2023-03-26T02:10:25.361Z,66.54
2023-03-26T02:12:54.560Z,65.75
2023-03-26T02:15:23.610Z,64.09
2023-03-26T02:17:53.812Z,64.98
2023-03-26T02:20:22.694Z,62.88
2023-03-26T02:22:51.107Z,64.87
2023-03-26T02:25:21.477Z,64.07
2023-03-26T02:27:51.801Z,63.77
2023-03-26T02:30:27.665Z,63.30
2023-03-26T02:32:59.912Z,63.76
2023-03-26T02:35:28.378Z,61.22
2023-03-26T02:37:57.064Z,61.50
2023-03-26T02:40:26.001Z,62.60
2023-03-26T02:42:54.476Z,62.04
2023-03-26T02:45:23.068Z,62.15
2023-03-26T02:47:51.964Z,59.77
2023-03-26T02:50:20.342Z,61.64
2023-03-26T02:52:50.775Z,62.11
2023-03-26T02:55:19.143Z,59.15
2023-03-26T02:57:47.495Z,59.81
2023-03-26T03:00:16.191Z,60.84
2023-03-26T03:02:48.849Z,60.04
2023-03-26T03:05:19.380Z,58.87
2023-03-26T03:07:48.136Z,58.80
2023-03-26T03:10:16.725Z,58.57
2023-03-26T03:12:45.132Z,59.15
2023-03-26T03:15:14.084Z,60.05
2023-03-26T03:17:42.636Z,59.11
2023-03-26T03:20:11.710Z,58.82
2023-03-26T03:22:40.345Z,58.32
2023-03-26T03:25:10.133Z,57.51
2023-03-26T03:27:40.195Z,57.26
2023-03-26T03:30:09.519Z,58.74
2023-03-26T03:32:38.064Z,56.97
2023-03-26T03:35:07.004Z,56.44
2023-03-26T03:37:35.680Z,55.65
2023-03-26T03:40:04.960Z,56.38
2023-03-26T03:42:33.314Z,57.50
2023-03-26T03:45:03.015Z,56.76
2023-03-26T03:47:31.481Z,56.08
2023-03-26T03:50:01.194Z,55.47
2023-03-26T03:52:29.586Z,56.50
2023-03-26T03:55:04.155Z,51.08
2023-03-26T03:57:34.463Z,54.18
2023-03-26T04:00:04.520Z,51.61
2023-03-26T04:02:35.612Z,52.31
2023-03-26T04:05:05.155Z,52.76
2023-03-26T04:07:34.332Z,49.34
2023-03-26T04:10:06.499Z,50.20
2023-03-26T04:12:35.055Z,49.50
2023-03-26T04:15:05.398Z,49.47
2023-03-26T04:17:33.798Z,51.93
2023-03-26T04:20:15.451Z,48.95
2023-03-26T04:22:44.803Z,50.10
2023-03-26T04:25:14.539Z,49.71
2023-03-26T04:27:44.345Z,49.78
2023-03-26T04:30:18.172Z,50.07
2023-03-26T04:32:47.810Z,47.15
2023-03-26T04:35:17.825Z,49.49
2023-03-26T04:37:47.139Z,47.08
2023-03-26T04:40:22.996Z,48.51
2023-03-26T04:42:51.406Z,47.81
2023-03-26T04:45:23.493Z,48.63
2023-03-26T04:47:52.383Z,48.32
2023-03-26T04:50:20.852Z,48.27
2023-03-26T04:52:49.203Z,47.82
2023-03-26T04:55:36.681Z,49.72
2023-03-26T04:58:06.376Z,48.71
2023-03-26T05:00:34.765Z,47.44
2023-03-26T05:03:03.192Z,49.04
2023-03-26T05:05:31.698Z,48.79
2023-03-26T05:08:00.111Z,47.10
2023-03-26T05:10:28.578Z,45.08
2023-03-26T05:12:57.299Z,45.59
2023-03-26T05:15:25.670Z,44.26
2023-03-26T05:17:56.307Z,44.64
2023-03-26T05:20:27.993Z,46.90
2023-03-26T05:22:56.727Z,40.45
2023-03-26T05:25:25.122Z,45.99
2023-03-26T05:27:53.942Z,42.16
2023-03-26T05:30:23.487Z,45.84
2023-03-26T05:32:52.802Z,46.29
2023-03-26T05:35:23.752Z,46.60
2023-03-26T05:37:52.449Z,45.46
2023-03-26T05:40:22.316Z,44.33
2023-03-26T05:42:52.231Z,46.28
2023-03-26T05:45:20.930Z,43.99
2023-03-26T05:47:50.667Z,46.04
2023-03-26T05:50:19.187Z,44.75
2023-03-26T05:52:47.581Z,44.76
2023-03-26T05:55:16.992Z,46.39
2023-03-26T05:57:45.437Z,43.54
2023-03-26T06:00:14.216Z,45.50
2023-03-26T06:02:43.786Z,44.51
2023-03-26T06:05:13.402Z,41.28
2023-03-26T06:07:41.738Z,44.01
2023-03-26T06:10:10.569Z,42.76
2023-03-26T06:12:39.328Z,41.91
2023-03-26T06:15:08.432Z,43.90
2023-03-26T06:17:36.827Z,44.39
2023-03-26T06:20:09.436Z,43.44
2023-03-26T06:22:38.060Z,42.66
2023-03-26T06:25:07.236Z,44.20
2023-03-26T06:27:35.562Z,43.27
2023-03-26T06:30:03.957Z,44.76
2023-03-26T06:32:32.419Z,44.76
2023-03-26T06:35:00.906Z,44.74
2023-03-26T06:37:29.351Z,43.41
2023-03-26T06:39:57.796Z,44.27
2023-03-26T06:43:06.536Z,42.51
2023-03-26T06:45:14.556Z,40.50
2023-03-26T06:47:43.129Z,41.44
2023-03-26T06:50:12.850Z,42.94
2023-03-26T06:52:41.646Z,43.41
2023-03-26T06:55:11.373Z,42.29
2023-03-26T06:57:39.796Z,40.96
2023-03-26T07:00:09.712Z,40.39
2023-03-26T07:02:38.323Z,43.30
2023-03-26T07:05:06.864Z,42.15
2023-03-26T07:07:35.357Z,43.11
2023-03-26T07:10:14.337Z,40.14
2023-03-26T07:12:43.440Z,42.17
2023-03-26T07:15:12.302Z,39.76
2023-03-26T07:17:40.946Z,40.01
2023-03-26T07:20:10.767Z,41.78
2023-03-26T07:22:39.542Z,41.97
2023-03-26T07:25:08.950Z,41.64
2023-03-26T07:28:02.963Z,41.95
2023-03-26T07:30:47.078Z,41.92
2023-03-26T07:33:30.414Z,42.51
2023-03-26T07:36:26.625Z,40.40
2023-03-26T07:39:22.213Z,42.14
2023-03-26T07:42:08.690Z,41.10
2023-03-26T07:44:52.152Z,41.19
2023-03-26T07:47:30.599Z,39.95
2023-03-26T07:49:59.524Z,41.48
2023-03-26T07:52:29.404Z,41.31
2023-03-26T07:54:58.193Z,39.42
2023-03-26T07:57:35.273Z,40.44
2023-03-26T08:00:23.970Z,41.87
2023-03-26T08:03:16.541Z,42.07
2023-03-26T08:05:53.633Z,39.44
2023-03-26T08:08:46.739Z,40.30
2023-03-26T08:11:29.938Z,40.57
2023-03-26T08:14:03.709Z,40.63
2023-03-26T08:16:44.226Z,39.67
2023-03-26T08:19:59.360Z,38.86
2023-03-26T08:22:32.756Z,37.77
2023-03-26T08:25:06.706Z,38.71
2023-03-26T08:27:45.136Z,38.57
2023-03-26T08:30:21.926Z,39.33
2023-03-26T08:33:05.028Z,37.57
2023-03-26T08:35:36.047Z,39.06
2023-03-26T08:38:04.477Z,40.87
2023-03-26T08:41:02.252Z,41.34
2023-03-26T08:44:11.006Z,41.02
2023-03-26T08:47:06.691Z,40.35
2023-03-26T08:50:01.843Z,40.27
2023-03-26T08:52:36.465Z,38.37
2023-03-26T08:55:22.990Z,40.65
2023-03-26T08:58:23.473Z,39.80
2023-03-26T09:01:19.074Z,39.30
2023-03-26T09:03:53.662Z,38.76
2023-03-26T09:06:34.287Z,38.75
2023-03-26T09:09:20.836Z,39.08
2023-03-26T09:12:25.008Z,40.48
2023-03-26T09:15:32.495Z,40.90
2023-03-26T09:18:09.757Z,39.17
2023-03-26T09:20:49.224Z,40.35
2023-03-26T09:23:32.624Z,39.66
2023-03-26T09:26:37.778Z,38.65
2023-03-26T09:29:44.318Z,37.16
2023-03-26T09:32:27.462Z,39.82
2023-03-26T09:35:21.418Z,38.93
2023-03-26T09:37:59.759Z,40.54
2023-03-26T09:40:50.775Z,40.34
2023-03-26T09:43:49.734Z,38.33
2023-03-26T09:46:55.234Z,39.54
2023-03-26T09:49:29.703Z,39.94
2023-03-26T09:52:22.328Z,39.81
2023-03-26T09:55:04.645Z,39.69
2023-03-26T09:58:03.861Z,39.15
2023-03-26T10:00:55.024Z,39.70
2023-03-26T10:03:47.612Z,39.26
2023-03-26T10:06:22.154Z,38.32
2023-03-26T10:09:23.953Z,40.12
2023-03-26T10:11:58.290Z,39.55
2023-03-26T10:14:46.794Z,39.65
2023-03-26T10:17:37.316Z,39.14
2023-03-26T10:20:37.150Z,39.39
2023-03-26T10:23:20.601Z,39.11
2023-03-26T10:25:58.137Z,39.58
2023-03-26T10:28:53.861Z,38.32
2023-03-26T10:31:40.668Z,39.98
2023-03-26T10:34:33.376Z,38.91
2023-03-26T10:37:29.518Z,38.84
2023-03-26T10:40:25.088Z,40.07
2023-03-26T10:43:30.466Z,39.21
2023-03-26T10:46:04.698Z,40.15
2023-03-26T10:49:09.991Z,39.95
2023-03-26T10:51:40.931Z,39.60
2023-03-26T10:54:33.912Z,40.53
2023-03-26T10:57:07.426Z,40.15
2023-03-26T10:59:35.812Z,39.98
2023-03-26T11:02:29.446Z,40.22
2023-03-26T11:05:08.697Z,40.03
2023-03-26T11:07:41.701Z,40.56
2023-03-26T11:10:31.677Z,41.11
2023-03-26T11:13:04.899Z,40.75
2023-03-26T11:16:00.186Z,40.53
2023-03-26T11:18:46.263Z,41.59
2023-03-26T11:21:38.541Z,41.02
2023-03-26T11:24:28.781Z,41.97
2023-03-26T11:27:16.936Z,41.21
2023-03-26T11:29:51.772Z,41.94
2023-03-26T11:32:27.427Z,43.23
2023-03-26T11:34:59.335Z,43.49
2023-03-26T11:37:47.763Z,44.55
2023-03-26T11:40:22.342Z,44.18
2023-03-26T11:42:57.339Z,44.08
2023-03-26T11:45:31.635Z,45.12
2023-03-26T11:48:09.027Z,46.27
2023-03-26T11:50:43.672Z,46.17
2023-03-26T11:53:18.681Z,46.97
2023-03-26T11:56:01.896Z,46.31
2023-03-26T11:58:42.851Z,45.64
2023-03-26T12:01:45.014Z,46.58
2023-03-26T12:04:16.638Z,46.33
2023-03-26T12:07:06.160Z,46.73
2023-03-26T12:09:34.711Z,47.81
2023-03-26T12:12:05.722Z,50.30
2023-03-26T12:14:36.742Z,51.42
2023-03-26T12:17:15.505Z,52.15
2023-03-26T12:19:46.016Z,54.32
2023-03-26T12:22:38.211Z,54.92
2023-03-26T12:25:17.828Z,55.61
2023-03-26T12:27:49.015Z,56.02
2023-03-26T12:30:31.711Z,55.30
2023-03-26T12:33:04.564Z,55.78
2023-03-26T12:35:35.916Z,55.48
2023-03-26T12:38:34.214Z,56.02
2023-03-26T12:44:43.587Z,55.82
2023-03-26T12:44:53.671Z,57.69
2023-03-26T12:47:59.421Z,58.36
2023-03-26T12:50:17.035Z,58.70
2023-03-26T12:53:13.445Z,58.60
2023-03-26T12:55:55.535Z,58.50
2023-03-26T12:58:39.261Z,58.00
2023-03-26T13:01:19.658Z,58.35
2023-03-26T13:03:57.013Z,58.29
2023-03-26T13:07:01.230Z,58.56
2023-03-26T13:10:04.578Z,56.26
2023-03-26T13:12:55.427Z,55.69
2023-03-26T13:15:26.460Z,54.89
2023-03-26T13:18:17.564Z,54.45
2023-03-26T13:20:58.933Z,53.59
2023-03-26T13:23:38.102Z,54.04
2023-03-26T13:26:15.544Z,52.84
2023-03-26T13:28:49.856Z,51.67
2023-03-26T13:31:41.925Z,52.50
2023-03-26T13:34:48.052Z,51.58
2023-03-26T13:37:24.112Z,52.11
2023-03-26T13:40:33.508Z,53.40
2023-03-26T13:43:02.006Z,53.65
2023-03-26T13:45:45.272Z,54.23
2023-03-26T13:48:43.595Z,54.88
2023-03-26T13:51:23.746Z,54.87
2023-03-26T13:54:22.601Z,53.83
2023-03-26T13:57:08.817Z,52.72
2023-03-26T14:00:02.526Z,52.82
2023-03-26T14:03:05.187Z,53.32
2023-03-26T14:05:56.930Z,54.45
2023-03-26T14:08:25.278Z,53.76
2023-03-26T14:11:00.407Z,53.55
2023-03-26T14:14:07.850Z,55.25
2023-03-26T14:16:50.740Z,56.43
2023-03-26T14:19:38.206Z,55.94
2023-03-26T14:22:15.368Z,56.01
2023-03-26T14:24:59.851Z,56.73
2023-03-26T14:27:40.251Z,57.61
2023-03-26T14:30:35.790Z,57.36
2023-03-26T14:33:15.704Z,57.63
2023-03-26T14:36:11.089Z,59.65
2023-03-26T14:39:00.834Z,60.97
2023-03-26T14:41:55.027Z,62.61
2023-03-26T14:45:00.517Z,62.82
2023-03-26T14:47:30.406Z,64.41
2023-03-26T14:50:14.756Z,64.94
2023-03-26T14:53:01.388Z,62.73
2023-03-26T14:55:57.929Z,61.67
2023-03-26T14:58:53.977Z,61.25
2023-03-26T15:01:48.222Z,60.73
2023-03-26T15:04:58.013Z,61.37
2023-03-26T15:07:42.757Z,61.48
2023-03-26T15:10:26.195Z,60.20
2023-03-26T15:13:25.295Z,59.32
2023-03-26T15:16:07.870Z,59.34
2023-03-26T15:18:56.977Z,58.79
2023-03-26T15:21:52.452Z,59.04
2023-03-26T15:24:46.148Z,59.05
2023-03-26T15:27:43.411Z,59.15
2023-03-26T15:30:49.449Z,58.30
2023-03-26T15:33:39.376Z,58.51
2023-03-26T15:36:24.050Z,58.81
2023-03-26T15:39:29.153Z,58.50
2023-03-26T15:42:20.486Z,57.99
2023-03-26T15:45:25.931Z,57.44
2023-03-26T15:48:13.376Z,58.07
2023-03-26T15:51:07.316Z,58.85
2023-03-26T15:54:09.832Z,59.04
2023-03-26T15:56:59.427Z,60.04
2023-03-26T15:59:40.039Z,58.72
2023-03-26T16:02:08.486Z,59.27
2023-03-26T16:05:24.166Z,62.07
2023-03-26T16:08:17.944Z,62.78
2023-03-26T16:11:01.298Z,63.45
2023-03-26T16:13:45.797Z,61.07
2023-03-26T16:16:17.379Z,60.90
2023-03-26T16:19:12.007Z,63.19
2023-03-26T16:22:03.872Z,67.16
2023-03-26T16:24:37.061Z,68.45
2023-03-26T16:27:14.050Z,70.55
2023-03-26T16:30:17.601Z,71.71
2023-03-26T16:32:56.371Z,72.05
2023-03-26T16:36:03.266Z,70.43
2023-03-26T16:39:11.712Z,70.35
2023-03-26T16:41:51.097Z,71.02
2023-03-26T16:44:48.358Z,71.68
2023-03-26T16:47:48.462Z,72.48
2023-03-26T16:50:31.096Z,73.20
2023-03-26T16:53:19.245Z,73.12
2023-03-26T16:55:54.389Z,72.97
2023-03-26T16:58:22.977Z,73.71
2023-03-26T17:01:16.855Z,73.98
2023-03-26T17:03:51.504Z,73.53
2023-03-26T17:06:33.108Z,72.14
2023-03-26T17:09:18.530Z,68.55
2023-03-26T17:11:52.982Z,68.98
2023-03-26T17:14:53.294Z,68.85
2023-03-26T17:17:56.454Z,73.66
2023-03-26T17:20:39.925Z,73.27
2023-03-26T17:23:34.416Z,75.60
2023-03-26T17:26:22.543Z,76.03
2023-03-26T17:29:02.912Z,75.86
2023-03-26T17:31:42.763Z,75.79
2023-03-26T17:34:53.545Z,75.53
2023-03-26T17:37:24.533Z,74.24
2023-03-26T17:39:52.891Z,75.72
2023-03-26T17:42:36.555Z,76.94
2023-03-26T17:45:21.454Z,77.46
2023-03-26T17:47:52.786Z,75.80
2023-03-26T17:50:47.288Z,75.13
2023-03-26T17:53:21.506Z,73.16
2023-03-26T17:55:51.444Z,73.63
2023-03-26T17:59:11.651Z,74.23
2023-03-26T18:01:46.123Z,74.48
2023-03-26T18:04:24.350Z,73.72
2023-03-26T18:07:19.916Z,72.68
2023-03-26T18:10:13.845Z,74.30
2023-03-26T18:13:02.048Z,75.02
2023-03-26T18:15:51.304Z,75.36
2023-03-26T18:18:25.963Z,75.92
2023-03-26T18:20:55.602Z,75.50
2023-03-26T18:23:48.303Z,75.26
2023-03-26T18:26:37.076Z,75.06
2023-03-26T18:29:29.087Z,76.09
2023-03-26T18:32:04.814Z,75.45
2023-03-26T18:34:35.097Z,75.41
2023-03-26T18:37:12.275Z,75.52
2023-03-26T18:39:40.829Z,76.26
2023-03-26T18:42:25.986Z,76.14
2023-03-26T18:44:59.889Z,76.38
2023-03-26T18:47:31.701Z,77.10
2023-03-26T18:50:01.158Z,77.44
2023-03-26T18:52:32.774Z,77.09
2023-03-26T18:55:03.599Z,77.98
2023-03-26T18:57:32.301Z,78.39
2023-03-26T19:00:28.763Z,78.60
2023-03-26T19:03:09.068Z,77.95
2023-03-26T19:05:38.243Z,78.16
2023-03-26T19:08:07.839Z,78.47
2023-03-26T19:10:37.988Z,76.85
2023-03-26T19:13:06.534Z,77.71
2023-03-26T19:15:36.761Z,77.93
2023-03-26T19:18:10.607Z,78.08
2023-03-26T19:20:43.676Z,79.54
2023-03-26T19:23:17.457Z,80.25
2023-03-26T19:25:49.459Z,81.04
2023-03-26T19:28:28.235Z,79.84
2023-03-26T19:31:09.054Z,79.40
2023-03-26T19:33:40.988Z,79.89
2023-03-26T19:36:24.503Z,79.36
2023-03-26T19:38:55.565Z,80.25
2023-03-26T19:41:32.499Z,80.82
2023-03-26T19:44:03.371Z,80.66
2023-03-26T19:46:53.025Z,80.05
2023-03-26T19:49:34.819Z,80.26
2023-03-26T19:52:21.150Z,80.04
2023-03-26T19:54:59.638Z,77.24
2023-03-26T19:57:34.049Z,74.60
2023-03-26T20:00:02.378Z,74.82
2023-03-26T20:02:30.872Z,76.77
2023-03-26T20:04:59.271Z,76.43
2023-03-26T20:07:35.425Z,76.31
2023-03-26T20:10:06.334Z,74.46
2023-03-26T20:12:34.838Z,77.92
2023-03-26T20:15:03.814Z,78.80
2023-03-26T20:17:32.406Z,79.04
2023-03-26T20:20:00.757Z,81.34
2023-03-26T20:22:29.207Z,82.11
2023-03-26T20:24:57.609Z,82.29
2023-03-26T20:27:25.981Z,81.62
2023-03-26T20:29:55.135Z,81.54
2023-03-26T20:32:26.988Z,82.65
2023-03-26T20:34:55.823Z,81.79
2023-03-26T20:37:24.185Z,76.53
2023-03-26T20:39:52.518Z,78.23
2023-03-26T20:42:20.946Z,82.79
2023-03-26T20:44:49.312Z,83.66
2023-03-26T20:47:18.200Z,83.70
2023-03-26T20:49:46.848Z,83.93
2023-03-26T20:52:16.270Z,84.45
2023-03-26T20:54:44.614Z,85.32
2023-03-26T20:57:14.165Z,86.00
2023-03-26T20:59:43.100Z,86.69
2023-03-26T21:02:12.915Z,86.53
2023-03-26T21:04:41.297Z,86.49
2023-03-26T21:07:18.340Z,87.63
2023-03-26T21:09:50.160Z,87.18
2023-03-26T21:12:43.111Z,84.58
2023-03-26T21:15:22.433Z,82.48
2023-03-26T21:17:53.161Z,84.80
2023-03-26T21:20:22.726Z,85.64
2023-03-26T21:23:18.040Z,85.70
2023-03-26T21:26:02.237Z,86.32
2023-03-26T21:28:50.224Z,85.70
2023-03-26T21:31:21.351Z,87.00
2023-03-26T21:33:51.457Z,85.99
2023-03-26T21:36:21.085Z,85.13
2023-03-26T21:38:51.438Z,85.55
2023-03-26T21:41:32.275Z,84.47
2023-03-26T21:44:01.380Z,85.07
2023-03-26T21:46:30.897Z,85.76
2023-03-26T21:48:59.569Z,85.83
2023-03-26T21:51:28.656Z,85.95
2023-03-26T21:53:57.407Z,86.14
2023-03-26T21:56:50.805Z,86.13
2023-03-26T22:00:01.778Z,86.60
2023-03-26T22:02:42.574Z,87.16
2023-03-26T22:05:20.783Z,87.23
2023-03-26T22:07:58.033Z,87.74
2023-03-26T22:10:26.643Z,87.89
2023-03-26T22:12:55.018Z,87.16
2023-03-26T22:15:23.380Z,87.15
2023-03-26T22:17:54.885Z,87.89
2023-03-26T22:20:28.920Z,87.94
2023-03-26T22:22:57.648Z,87.64
2023-03-26T22:25:26.003Z,87.56
2023-03-26T22:27:54.815Z,88.14
2023-03-26T22:30:23.235Z,88.27
2023-03-26T22:32:52.627Z,88.12
2023-03-26T22:35:21.454Z,86.99
2023-03-26T22:37:49.915Z,87.20
2023-03-26T22:40:18.867Z,87.71
2023-03-26T22:42:47.224Z,87.62
2023-03-26T22:45:15.767Z,83.67
2023-03-26T22:47:44.273Z,81.57
2023-03-26T22:50:12.979Z,81.44
2023-03-26T22:52:42.029Z,83.90
2023-03-26T22:55:11.962Z,85.98
2023-03-26T22:57:40.711Z,86.71
2023-03-26T23:00:17.256Z,86.74
2023-03-26T23:02:48.468Z,88.41
2023-03-26T23:05:19.659Z,88.67
2023-03-26T23:07:49.822Z,88.46
2023-03-26T23:10:18.186Z,88.64
2023-03-26T23:12:46.589Z,88.69
2023-03-26T23:15:15.036Z,88.46
2023-03-26T23:17:43.421Z,89.73
2023-03-26T23:20:18.615Z,89.75
2023-03-26T23:22:47.389Z,90.59
2023-03-26T23:25:16.693Z,91.02
2023-03-26T23:27:45.585Z,91.59
2023-03-26T23:30:15.999Z,92.24
2023-03-26T23:32:45.028Z,91.26
2023-03-26T23:35:13.400Z,91.35
2023-03-26T23:37:43.145Z,91.42
2023-03-26T23:40:12.675Z,90.25
2023-03-26T23:42:40.994Z,90.50
2023-03-26T23:45:10.033Z,92.52
2023-03-26T23:47:42.994Z,93.11
2023-03-26T23:50:12.067Z,93.92
2023-03-26T23:52:40.437Z,94.03
2023-03-26T23:55:09.650Z,93.63
2023-03-26T23:57:38.172Z,93.20
